Time;durP1;ratioP1;P1;durP2;ratioP2;P2;SDS_P1;SDS_P2;PMS_P1;PMS_P2;Temp;Humidity;BMP_temperature;BMP_pressure;BME280_temperature;BME280_humidity;BME280_pressure;Samples;Min_cycle;Max_cycle;Signal;HPM_P1;HPM_P2
2021/11/14 00:00:55;;;;;;;168.93;68.60;;;;;;;2.71;100.00;99357.44;2088189;28;20309;-75
2021/11/14 00:01:56;;;;;;;147.50;67.05;;;;;;;2.74;100.00;99358.78;2087859;28;20621;-75
2021/11/14 00:03:00;;;;;;;151.30;65.97;;;;;;;2.74;100.00;99354.31;2087689;28;20300;-75
2021/11/14 00:04:02;;;;;;;159.45;65.47;;;;;;;2.73;100.00;99351.91;2087057;28;20568;-75
2021/11/14 00:05:03;;;;;;;157.85;66.20;;;;;;;2.74;100.00;99353.50;2086989;28;20226;-75
2021/11/14 00:06:06;;;;;;;154.60;67.97;;;;;;;2.76;100.00;99357.50;2088137;28;20222;-75
2021/11/14 00:07:07;;;;;;;157.70;66.72;;;;;;;2.75;100.00;99358.53;2087700;28;20561;-75
2021/11/14 00:08:10;;;;;;;152.87;64.53;;;;;;;2.76;100.00;99360.13;2088061;28;20249;-75
2021/11/14 00:09:13;;;;;;;161.80;67.80;;;;;;;2.78;100.00;99360.72;2088061;28;20987;-75
2021/11/14 00:10:15;;;;;;;157.15;65.40;;;;;;;2.79;100.00;99362.31;2088146;28;20229;-75
2021/11/14 00:11:18;;;;;;;158.68;67.85;;;;;;;2.82;100.00;99361.84;2087974;28;20211;-75
2021/11/14 00:12:20;;;;;;;158.50;66.65;;;;;;;2.79;100.00;99350.97;2086937;28;20231;-75
2021/11/14 00:13:23;;;;;;;163.88;69.25;;;;;;;2.75;100.00;99355.91;2087247;28;20221;-75
2021/11/14 00:14:26;;;;;;;161.18;67.90;;;;;;;2.77;100.00;99355.66;2087537;28;20234;-75
2021/11/14 00:15:26;;;;;;;159.70;67.75;;;;;;;2.76;100.00;99354.88;2088031;28;20237;-75
2021/11/14 00:16:28;;;;;;;156.10;64.50;;;;;;;2.76;100.00;99348.81;2087146;28;20222;-75
2021/11/14 00:17:29;;;;;;;151.65;67.03;;;;;;;2.78;100.00;99360.72;2087318;28;20239;-75
2021/11/14 00:18:31;;;;;;;147.97;62.33;;;;;;;2.82;100.00;99361.03;2087105;28;20237;-75
2021/11/14 00:19:31;;;;;;;153.13;65.78;;;;;;;2.82;100.00;99361.03;2087285;28;20230;-75
2021/11/14 00:20:35;;;;;;;152.93;65.30;;;;;;;2.84;100.00;99359.75;2087957;28;20231;-75
2021/11/14 00:21:40;;;;;;;154.43;65.43;;;;;;;2.86;100.00;99363.97;2087912;28;20313;-75
2021/11/14 00:22:41;;;;;;;157.40;67.53;;;;;;;2.87;100.00;99369.03;2087590;28;20234;-75
2021/11/14 00:23:43;;;;;;;138.17;63.03;;;;;;;2.87;100.00;99355.03;2087994;28;20250;-75
2021/11/14 00:24:45;;;;;;;155.63;65.28;;;;;;;2.89;100.00;99360.88;2087863;28;20276;-75
2021/11/14 00:25:47;;;;;;;155.27;64.75;;;;;;;2.89;100.00;99355.63;2087963;28;20226;-75
2021/11/14 00:26:52;;;;;;;148.38;65.80;;;;;;;2.91;100.00;99361.44;2087842;28;20695;-75
2021/11/14 00:27:56;;;;;;;136.23;63.28;;;;;;;2.93;100.00;99362.78;2086634;28;20309;-75
2021/11/14 00:29:06;;;;;;;139.05;64.63;;;;;;;2.93;100.00;99356.72;2080187;28;20219;-75
2021/11/14 00:30:08;;;;;;;132.35;61.65;;;;;;;2.95;100.00;99350.16;2078652;28;20293;-75
2021/11/14 00:31:10;;;;;;;147.02;63.65;;;;;;;2.94;100.00;99348.56;2087101;28;20235;-75
2021/11/14 00:32:10;;;;;;;143.82;64.68;;;;;;;2.96;100.00;99353.63;2087867;28;20719;-75
2021/11/14 00:33:12;;;;;;;137.37;64.17;;;;;;;2.96;100.00;99351.78;2087133;28;22076;-75
2021/11/14 00:34:13;;;;;;;155.38;67.13;;;;;;;2.96;100.00;99353.63;2087198;28;20228;-75
2021/11/14 00:35:16;;;;;;;156.88;65.55;;;;;;;2.96;100.00;99357.06;2087215;28;20301;-75
2021/11/14 00:36:19;;;;;;;139.25;64.93;;;;;;;2.96;100.00;99346.53;2079247;28;20223;-75
2021/11/14 00:37:20;;;;;;;142.38;65.05;;;;;;;2.97;100.00;99353.38;2087038;28;20233;-75
2021/11/14 00:38:22;;;;;;;151.60;66.10;;;;;;;2.95;100.00;99338.84;2086971;28;20818;-75
2021/11/14 00:39:23;;;;;;;146.40;65.35;;;;;;;3.00;100.00;99352.09;2086723;28;20292;-75
2021/11/14 00:40:28;;;;;;;150.60;65.22;;;;;;;3.01;100.00;99351.06;2087800;28;20223;-75
2021/11/14 00:41:33;;;;;;;146.98;63.80;;;;;;;2.98;100.00;99354.97;2086858;28;20231;-75
2021/11/14 00:42:34;;;;;;;149.90;66.40;;;;;;;3.01;100.00;99353.69;2087093;28;20245;-75
2021/11/14 00:43:36;;;;;;;149.47;64.80;;;;;;;3.02;100.00;99361.38;2087799;28;20329;-75
2021/11/14 00:44:37;;;;;;;135.73;62.88;;;;;;;3.03;100.00;99362.16;2086626;28;20712;-75
2021/11/14 00:45:44;;;;;;;139.55;63.83;;;;;;;3.02;100.00;99361.38;2078970;28;20644;-75
2021/11/14 00:46:46;;;;;;;137.23;65.15;;;;;;;3.01;100.00;99364.25;2087396;28;20305;-75
2021/11/14 00:47:51;;;;;;;144.73;64.78;;;;;;;2.99;100.00;99364.47;2078768;28;20223;-75
2021/11/14 00:48:53;;;;;;;151.63;65.00;;;;;;;3.01;100.00;99356.34;2087153;28;20230;-75
2021/11/14 00:49:53;;;;;;;137.02;64.70;;;;;;;3.02;100.00;99357.94;2086838;28;20232;-74
2021/11/14 00:50:55;;;;;;;143.37;64.20;;;;;;;3.03;100.00;99356.88;2087032;28;20260;-74
2021/11/14 00:51:56;;;;;;;144.82;64.13;;;;;;;3.02;100.00;99357.94;2087028;28;20267;-76
2021/11/14 00:53:00;;;;;;;142.93;63.10;;;;;;;3.03;100.00;99356.88;2086969;28;20261;-75
2021/11/14 00:54:04;;;;;;;144.73;64.40;;;;;;;3.00;100.00;99349.47;2086823;28;20446;-74
2021/11/14 00:55:10;;;;;;;144.38;63.88;;;;;;;3.03;100.00;99351.63;2086881;28;20218;-76
2021/11/14 00:56:14;;;;;;;152.57;65.15;;;;;;;3.05;100.00;99357.47;2086426;28;20290;-73
2021/11/14 00:57:14;;;;;;;138.93;64.03;;;;;;;3.06;100.00;99361.69;2086962;28;20226;-74
2021/11/14 00:58:17;;;;;;;138.10;63.53;;;;;;;3.07;100.00;99355.38;2087611;28;20721;-73
2021/11/14 00:59:18;;;;;;;145.15;61.92;;;;;;;3.08;100.00;99363.06;2087782;28;20218;-73
2021/11/14 01:00:22;;;;;;;135.50;63.10;;;;;;;3.09;100.00;99358.56;2087705;28;20218;-74
2021/11/14 01:01:23;;;;;;;142.38;64.40;;;;;;;3.07;100.00;99358.81;2094617;28;20230;-74
2021/11/14 01:02:25;;;;;;;139.57;64.25;;;;;;;3.06;100.00;99351.16;2095072;28;20582;-74
2021/11/14 01:03:26;;;;;;;143.15;64.45;;;;;;;3.06;100.00;99354.59;2095779;28;20221;-74
2021/11/14 01:04:28;;;;;;;145.97;65.43;;;;;;;3.09;100.00;99353.31;2095070;28;20252;-76
2021/11/14 01:05:31;;;;;;;149.45;66.57;;;;;;;3.06;100.00;99359.06;2086441;28;20313;-74
2021/11/14 01:06:32;;;;;;;143.18;63.60;;;;;;;3.07;100.00;99352.75;2095279;28;20273;-75
2021/11/14 01:07:33;;;;;;;136.98;63.22;;;;;;;3.07;100.00;99348.28;2095028;28;20254;-74
2021/11/14 01:08:36;;;;;;;140.25;63.45;;;;;;;3.11;100.00;99357.28;2095153;28;20225;-74
2021/11/14 01:09:39;;;;;;;138.50;64.07;;;;;;;3.09;100.00;99355.94;2087264;28;20227;-74
2021/11/14 01:10:43;;;;;;;136.65;61.40;;;;;;;3.09;100.00;99355.94;2087495;28;20661;-74
2021/11/14 01:11:45;;;;;;;140.45;61.92;;;;;;;3.08;100.00;99359.63;2087483;28;20219;-75
2021/11/14 01:12:47;;;;;;;137.38;62.60;;;;;;;3.05;100.00;99354.84;2086949;28;20219;-75
2021/11/14 01:13:48;;;;;;;143.30;62.67;;;;;;;3.04;100.00;99347.94;2086736;28;20334;-73
2021/11/14 01:14:50;;;;;;;149.10;65.85;;;;;;;3.00;100.00;99347.63;2086926;28;20219;-74
2021/11/14 01:15:54;;;;;;;150.75;65.25;;;;;;;3.02;100.00;99356.09;2086625;28;20223;-74
2021/11/14 01:16:56;;;;;;;133.43;62.65;;;;;;;3.02;100.00;99350.81;2086801;28;20226;-73
2021/11/14 01:17:58;;;;;;;134.13;62.72;;;;;;;3.01;100.00;99356.34;2094954;28;20229;-74
2021/11/14 01:18:59;;;;;;;140.75;63.35;;;;;;;2.99;100.00;99347.88;2087468;28;20215;-74
2021/11/14 01:20:01;;;;;;;135.38;63.13;;;;;;;2.97;100.00;99347.31;2087489;28;20226;-74
2021/11/14 01:21:06;;;;;;;138.93;63.55;;;;;;;2.96;100.00;99357.06;2086599;28;20566;-74
2021/11/14 01:22:07;;;;;;;138.63;62.85;;;;;;;2.95;100.00;99360.72;2086524;28;20244;-74
2021/11/14 01:23:11;;;;;;;143.37;63.50;;;;;;;2.95;100.00;99359.91;2086549;28;20352;-74
2021/11/14 01:24:14;;;;;;;137.32;64.82;;;;;;;2.94;100.00;99361.75;2086874;28;20308;-74
2021/11/14 01:25:17;;;;;;;147.18;63.58;;;;;;;2.95;100.00;99367.81;2086635;28;20235;-74
2021/11/14 01:26:18;;;;;;;134.90;63.83;;;;;;;2.97;100.00;99365.78;2086661;28;20563;-74
2021/11/14 01:27:21;;;;;;;140.30;64.03;;;;;;;2.98;100.00;99362.09;2086692;28;20309;-74
2021/11/14 01:28:22;;;;;;;140.40;61.55;;;;;;;2.99;100.00;99366.31;2086358;28;20280;-74
2021/11/14 01:29:24;;;;;;;136.43;64.17;;;;;;;2.98;100.00;99372.63;2086574;28;20223;-74
2021/11/14 01:30:30;;;;;;;144.75;63.90;;;;;;;2.98;100.00;99359.47;2078272;28;20280;-74
2021/11/14 01:31:32;;;;;;;147.40;65.40;;;;;;;2.96;100.00;99364.19;2086908;28;20226;-75
2021/11/14 01:32:34;;;;;;;133.93;62.22;;;;;;;2.96;100.00;99372.88;2087365;28;20230;-74
2021/11/14 01:33:35;;;;;;;141.13;62.92;;;;;;;2.96;100.00;99366.81;2086613;28;20633;-75
2021/11/14 01:34:36;;;;;;;130.65;61.17;;;;;;;2.97;100.00;99363.13;2086703;28;20234;-73
2021/11/14 01:35:38;;;;;;;132.02;61.30;;;;;;;2.97;100.00;99363.13;2086025;28;20696;-74
2021/11/14 01:36:39;;;;;;;131.43;61.85;;;;;;;2.95;100.00;99359.91;2078268;28;20238;-74
2021/11/14 01:37:44;;;;;;;141.93;64.95;;;;;;;2.98;100.00;99370.00;2086657;28;20677;-73
2021/11/14 01:38:45;;;;;;;139.93;63.05;;;;;;;3.00;100.00;99370.56;2086078;28;20222;-74
2021/11/14 01:39:47;;;;;;;132.77;61.53;;;;;;;3.00;100.00;99367.91;2086684;28;20223;-74
2021/11/14 01:40:50;;;;;;;139.43;64.05;;;;;;;3.03;100.00;99367.44;2087352;28;20302;-74
2021/11/14 01:41:52;;;;;;;140.32;62.50;;;;;;;3.01;100.00;99358.97;2086486;28;20296;-74
2021/11/14 01:42:54;;;;;;;140.35;64.50;;;;;;;3.03;100.00;99370.06;2077958;28;20280;-74
2021/11/14 01:43:56;;;;;;;136.45;63.00;;;;;;;3.04;100.00;99369.84;2086592;28;20309;-74
2021/11/14 01:44:57;;;;;;;138.30;63.10;;;;;;;3.05;100.00;99368.00;2086426;28;20264;-74
2021/11/14 01:45:59;;;;;;;126.73;61.43;;;;;;;3.08;100.00;99367.53;2086670;28;20219;-74
2021/11/14 01:47:01;;;;;;;140.35;64.15;;;;;;;3.08;100.00;99355.16;2094696;28;20640;-74
2021/11/14 01:48:02;;;;;;;149.85;64.50;;;;;;;3.10;100.00;99362.81;2094715;28;20226;-74
2021/11/14 01:49:04;;;;;;;134.07;63.57;;;;;;;3.11;100.00;99364.41;2086398;28;20222;-74
2021/11/14 01:50:08;;;;;;;137.25;64.00;;;;;;;3.11;100.00;99365.19;2086577;28;20222;-74
2021/11/14 01:51:10;;;;;;;143.63;63.70;;;;;;;3.12;100.00;99366.00;2086049;28;20222;-74
2021/11/14 01:52:19;;;;;;;144.98;63.95;;;;;;;3.12;100.00;99372.06;2086563;28;20223;-74
2021/11/14 01:53:21;;;;;;;135.00;63.30;;;;;;;3.15;100.00;99368.16;2087219;28;20225;-74
2021/11/14 01:54:22;;;;;;;138.40;62.88;;;;;;;3.16;100.00;99367.13;2086173;28;20227;-74
2021/11/14 01:55:25;;;;;;;141.45;63.03;;;;;;;3.18;100.00;99365.03;2086342;28;20222;-74
2021/11/14 01:56:26;;;;;;;141.07;63.80;;;;;;;3.21;100.00;99363.75;2087139;28;20234;-73
2021/11/14 01:57:29;;;;;;;130.83;61.63;;;;;;;3.21;100.00;99369.81;2087254;28;20310;-74
2021/11/14 01:58:32;;;;;;;141.02;62.08;;;;;;;3.21;100.00;99364.56;2086430;28;20253;-74
2021/11/14 01:59:35;;;;;;;139.80;64.18;;;;;;;3.22;100.00;99366.19;2078458;28;20223;-74
2021/11/14 02:00:38;;;;;;;142.57;62.83;;;;;;;3.22;100.00;99368.81;2086509;28;20234;-74
2021/11/14 02:01:40;;;;;;;146.98;63.53;;;;;;;3.23;100.00;99364.34;2085997;28;20772;-74
2021/11/14 02:02:41;;;;;;;133.02;64.10;;;;;;;3.22;100.00;99360.91;2078243;28;20231;-74
2021/11/14 02:03:46;;;;;;;138.00;61.03;;;;;;;3.26;100.00;99366.50;2086527;28;20332;-74
2021/11/14 02:04:47;;;;;;;144.38;64.55;;;;;;;3.26;100.00;99367.28;2086643;28;20219;-74
2021/11/14 02:05:52;;;;;;;145.13;66.15;;;;;;;3.26;100.00;99366.50;2086229;28;20820;-74
2021/11/14 02:06:52;;;;;;;134.93;62.33;;;;;;;3.28;100.00;99369.69;2085929;28;20218;-74
2021/11/14 02:07:56;;;;;;;133.80;64.00;;;;;;;3.28;100.00;99369.69;2086316;28;20313;-74
2021/11/14 02:08:57;;;;;;;140.90;64.35;;;;;;;3.20;100.00;99360.31;2086397;28;20233;-74
2021/11/14 02:09:59;;;;;;;131.15;61.65;;;;;;;3.30;100.00;99378.97;2087126;28;20230;-74
2021/11/14 02:11:00;;;;;;;141.43;62.88;;;;;;;3.29;100.00;99374.69;2085951;28;20284;-74
2021/11/14 02:12:02;;;;;;;134.57;63.25;;;;;;;3.32;100.00;99376.09;2086667;28;20252;-74
2021/11/14 02:13:05;;;;;;;134.80;61.95;;;;;;;3.32;100.00;99371.59;2094635;28;20221;-74
2021/11/14 02:14:09;;;;;;;131.40;60.72;;;;;;;3.32;100.00;99368.16;2086739;28;20238;-74
2021/11/14 02:15:10;;;;;;;135.60;63.95;;;;;;;3.34;100.00;99380.06;2086301;28;20701;-74
2021/11/14 02:16:13;;;;;;;125.03;59.70;;;;;;;3.34;100.00;99374.78;2077722;28;20314;-74
2021/11/14 02:17:14;;;;;;;133.65;62.35;;;;;;;3.35;100.00;99371.13;2086410;28;20230;-74
2021/11/14 02:18:17;;;;;;;126.10;62.20;;;;;;;3.36;100.00;99374.53;2086353;28;20313;-73
2021/11/14 02:19:18;;;;;;;130.35;59.67;;;;;;;3.34;100.00;99369.53;2086587;28;20249;-74
2021/11/14 02:20:25;;;;;;;123.55;60.58;;;;;;;3.35;100.00;99376.38;2087102;28;20218;-74
2021/11/14 02:21:26;;;;;;;135.88;60.40;;;;;;;3.38;100.00;99370.63;2085969;28;20271;-74
2021/11/14 02:22:28;;;;;;;115.68;58.65;;;;;;;3.43;100.00;99382.31;2078071;28;20275;-74
2021/11/14 02:23:29;;;;;;;121.10;58.55;;;;;;;3.43;100.00;99377.03;2078050;28;20276;-74
2021/11/14 02:24:31;;;;;;;126.70;59.77;;;;;;;3.43;100.00;99374.38;2086402;28;20280;-74
2021/11/14 02:25:34;;;;;;;127.00;60.95;;;;;;;3.48;100.00;99380.56;2087215;28;20462;-73
2021/11/14 02:26:36;;;;;;;124.30;60.53;;;;;;;3.51;100.00;99374.00;2094001;28;20239;-74
2021/11/14 02:27:38;;;;;;;125.03;59.72;;;;;;;3.49;100.00;99371.59;2085989;28;20294;-74
2021/11/14 02:28:41;;;;;;;127.97;61.05;;;;;;;3.50;100.00;99375.03;2086171;28;20709;-74
2021/11/14 02:29:42;;;;;;;124.22;57.92;;;;;;;3.47;100.00;99380.75;2086346;28;20356;-74
2021/11/14 02:30:44;;;;;;;123.67;58.90;;;;;;;3.44;100.00;99374.16;2087195;28;20272;-73
2021/11/14 02:31:44;;;;;;;122.88;60.42;;;;;;;3.43;100.00;99372.56;2086189;28;20218;-74
2021/11/14 02:32:48;;;;;;;119.47;58.20;;;;;;;3.43;100.00;99374.38;2086262;28;20246;-74
2021/11/14 02:33:50;;;;;;;123.65;58.78;;;;;;;3.44;100.00;99376.78;2086440;28;20226;-74
2021/11/14 02:34:53;;;;;;;124.25;60.05;;;;;;;3.44;100.00;99378.63;2086150;28;20733;-73
2021/11/14 02:35:59;;;;;;;113.07;57.35;;;;;;;3.43;100.00;99377.03;2087176;28;20351;-74
2021/11/14 02:37:00;;;;;;;121.72;56.72;;;;;;;3.39;100.00;99369.59;2087011;28;20227;-74
2021/11/14 02:38:03;;;;;;;124.53;57.70;;;;;;;3.40;100.00;99370.41;2086257;28;20289;-74
2021/11/14 02:39:05;;;;;;;132.23;60.00;;;;;;;3.38;100.00;99375.91;2078033;28;20223;-74
2021/11/14 02:40:10;;;;;;;124.70;56.92;;;;;;;3.39;100.00;99384.63;2086360;28;20693;-74
2021/11/14 02:41:15;;;;;;;117.50;56.33;;;;;;;3.37;100.00;99379.56;2086641;28;20223;-73
2021/11/14 02:42:16;;;;;;;122.45;58.75;;;;;;;3.41;100.00;99382.56;2087030;28;20675;-73
2021/11/14 02:43:19;;;;;;;115.33;58.73;;;;;;;3.41;100.00;99382.56;2087084;28;20565;-74
2021/11/14 02:44:21;;;;;;;119.25;57.05;;;;;;;3.42;100.00;99380.72;2085843;28;20227;-74
2021/11/14 02:45:24;;;;;;;114.50;57.15;;;;;;;3.41;100.00;99379.91;2085851;28;20557;-73
2021/11/14 02:46:26;;;;;;;120.70;58.85;;;;;;;3.42;100.00;99381.50;2094490;28;20684;-74
2021/11/14 02:47:28;;;;;;;124.65;57.63;;;;;;;3.43;100.00;99382.31;2094507;28;20233;-74
2021/11/14 02:48:34;;;;;;;117.07;56.72;;;;;;;3.39;100.00;99372.25;2094599;28;20292;-74
2021/11/14 02:49:35;;;;;;;122.50;59.13;;;;;;;3.41;100.00;99385.19;2095383;28;20229;-73
2021/11/14 02:50:37;;;;;;;117.72;57.50;;;;;;;3.42;100.00;99385.97;2095278;28;20226;-74
2021/11/14 02:51:39;;;;;;;117.47;58.47;;;;;;;3.42;100.00;99386.78;2086621;28;20222;-74
2021/11/14 02:52:41;;;;;;;124.93;59.15;;;;;;;3.44;100.00;99387.34;2087059;28;20230;-74
2021/11/14 02:53:45;;;;;;;117.93;59.22;;;;;;;3.46;100.00;99392.34;2086151;28;20234;-74
2021/11/14 02:54:46;;;;;;;117.78;58.65;;;;;;;3.48;100.00;99385.81;2086205;28;20678;-74
2021/11/14 02:55:48;;;;;;;114.10;57.87;;;;;;;3.47;100.00;99381.56;2086115;28;20545;-74
2021/11/14 02:56:49;;;;;;;116.65;58.55;;;;;;;3.48;100.00;99385.81;2078080;28;20346;-74
2021/11/14 02:57:50;;;;;;;123.27;58.27;;;;;;;3.48;100.00;99390.31;2086402;28;20226;-73
2021/11/14 02:58:51;;;;;;;116.40;57.67;;;;;;;3.48;100.00;99390.31;2086102;28;20222;-73
2021/11/14 02:59:53;;;;;;;113.87;57.30;;;;;;;3.48;100.00;99390.31;2094196;28;20309;-74
2021/11/14 03:01:00;;;;;;;120.50;58.80;;;;;;;3.48;100.00;99387.66;2095085;28;20295;-74
2021/11/14 03:02:02;;;;;;;119.30;59.67;;;;;;;3.49;100.00;99395.34;2095368;28;20563;-74
2021/11/14 03:03:03;;;;;;;120.22;57.75;;;;;;;3.51;100.00;99389.81;2095356;28;20680;-74
2021/11/14 03:04:05;;;;;;;113.32;56.80;;;;;;;3.52;100.00;99388.75;2094099;28;20218;-74
2021/11/14 03:05:08;;;;;;;120.85;58.30;;;;;;;3.52;100.00;99388.75;2094526;28;20233;-74
2021/11/14 03:06:10;;;;;;;122.15;58.22;;;;;;;3.58;100.00;99385.19;2093663;28;20237;-73
2021/11/14 03:07:12;;;;;;;113.55;57.17;;;;;;;3.58;100.00;99393.09;2094285;28;20229;-74
2021/11/14 03:08:17;;;;;;;120.68;56.65;;;;;;;3.54;100.00;99390.13;2094061;28;20302;-74
2021/11/14 03:09:23;;;;;;;117.55;57.63;;;;;;;3.54;100.00;99384.03;2094543;28;20282;-74
2021/11/14 03:10:27;;;;;;;113.53;57.10;;;;;;;3.52;100.00;99386.94;2094817;28;20254;-74
2021/11/14 03:11:29;;;;;;;115.07;58.22;;;;;;;3.49;100.00;99387.41;2094345;28;20218;-74
2021/11/14 03:12:30;;;;;;;111.75;55.30;;;;;;;3.51;100.00;99390.59;2086477;28;20219;-74
2021/11/14 03:13:32;;;;;;;120.57;58.30;;;;;;;3.51;100.00;99389.81;2094479;28;20305;-74
2021/11/14 03:14:33;;;;;;;114.68;55.67;;;;;;;3.52;100.00;99391.41;2094372;28;20604;-73
2021/11/14 03:15:37;;;;;;;120.93;56.30;;;;;;;3.50;100.00;99383.75;2094493;28;20233;-73
2021/11/14 03:16:38;;;;;;;116.30;57.47;;;;;;;3.50;100.00;99385.59;2093818;28;20476;-74
2021/11/14 03:17:40;;;;;;;117.22;57.00;;;;;;;3.51;100.00;99392.44;2094472;28;20635;-74
2021/11/14 03:18:41;;;;;;;110.18;58.30;;;;;;;3.52;100.00;99391.41;2094290;28;20237;-74
2021/11/14 03:19:42;;;;;;;121.70;58.07;;;;;;;3.52;100.00;99397.47;2094391;28;20684;-74
2021/11/14 03:20:44;;;;;;;113.03;58.28;;;;;;;3.54;100.00;99403.31;2094532;28;20222;-73
2021/11/14 03:21:48;;;;;;;123.22;58.58;;;;;;;3.54;100.00;99402.50;2094364;28;20309;-74
2021/11/14 03:22:51;;;;;;;112.30;57.55;;;;;;;3.53;100.00;99401.72;2094399;28;20297;-74
2021/11/14 03:23:54;;;;;;;112.72;56.33;;;;;;;3.50;100.00;99393.50;2102220;28;20236;-74
2021/11/14 03:24:54;;;;;;;121.30;59.33;;;;;;;3.50;100.00;99391.66;2094184;28;20249;-74
2021/11/14 03:25:57;;;;;;;120.50;58.33;;;;;;;3.51;100.00;99387.97;2094193;28;20245;-73
2021/11/14 03:26:58;;;;;;;120.57;59.63;;;;;;;3.51;100.00;99395.09;2094210;28;20222;-74
2021/11/14 03:28:00;;;;;;;117.20;59.10;;;;;;;3.51;100.00;99392.44;2094475;28;20236;-74
2021/11/14 03:29:01;;;;;;;111.75;57.45;;;;;;;3.54;100.00;99392.75;2094741;28;20225;-74
2021/11/14 03:30:05;;;;;;;127.32;58.75;;;;;;;3.53;100.00;99399.06;2094341;28;20593;-74
2021/11/14 03:31:06;;;;;;;117.65;58.90;;;;;;;3.55;100.00;99389.06;2094360;28;20226;-74
2021/11/14 03:32:12;;;;;;;122.07;59.10;;;;;;;3.57;100.00;99399.41;2093503;28;20656;-73
2021/11/14 03:33:14;;;;;;;119.70;57.97;;;;;;;3.56;100.00;99395.16;2086606;28;20696;-74
2021/11/14 03:34:16;;;;;;;114.75;57.72;;;;;;;3.55;100.00;99390.91;2094366;28;20218;-74
2021/11/14 03:35:17;;;;;;;122.32;57.20;;;;;;;3.56;100.00;99393.34;2095144;28;20229;-74
2021/11/14 03:36:20;;;;;;;113.35;58.35;;;;;;;3.55;100.00;99396.19;2095235;28;20676;-74
2021/11/14 03:37:22;;;;;;;110.20;55.28;;;;;;;3.57;100.00;99402.84;2094181;28;20347;-74
2021/11/14 03:38:28;;;;;;;113.88;57.97;;;;;;;3.56;100.00;99397.78;2086215;28;20226;-74
2021/11/14 03:39:29;;;;;;;123.75;58.35;;;;;;;3.57;100.00;99402.84;2088258;28;20233;-74
2021/11/14 03:40:30;;;;;;;117.80;58.83;;;;;;;3.55;100.00;99397.00;2088337;28;20226;-74
2021/11/14 03:41:34;;;;;;;117.32;58.83;;;;;;;3.55;100.00;99404.09;2088305;28;20226;-74
2021/11/14 03:42:36;;;;;;;122.07;59.28;;;;;;;3.56;100.00;99400.41;2088240;28;20275;-73
2021/11/14 03:43:38;;;;;;;123.03;58.40;;;;;;;3.53;100.00;99399.06;2088331;28;20663;-74
2021/11/14 03:44:41;;;;;;;113.47;57.22;;;;;;;3.52;100.00;99397.47;2087036;28;20238;-74
2021/11/14 03:45:42;;;;;;;124.07;58.72;;;;;;;3.54;100.00;99394.59;2087573;28;20234;-74
2021/11/14 03:46:44;;;;;;;120.80;58.50;;;;;;;3.54;100.00;99400.66;2087350;28;20264;-74
2021/11/14 03:47:45;;;;;;;110.90;57.42;;;;;;;3.56;100.00;99397.78;2081375;28;20222;-74
2021/11/14 03:48:49;;;;;;;111.30;57.55;;;;;;;3.55;100.00;99396.19;2079521;28;20302;-74
2021/11/14 03:49:51;;;;;;;123.00;59.75;;;;;;;3.53;100.00;99403.56;2087524;28;20311;-74
2021/11/14 03:50:54;;;;;;;115.00;58.80;;;;;;;3.55;100.00;99401.47;2088911;28;20312;-74
2021/11/14 03:51:55;;;;;;;116.22;57.05;;;;;;;3.54;100.00;99398.03;2079268;28;20227;-74
2021/11/14 03:52:57;;;;;;;118.40;59.47;;;;;;;3.54;100.00;99405.16;2087530;28;20230;-74
2021/11/14 03:53:59;;;;;;;118.95;57.00;;;;;;;3.55;100.00;99404.09;2087307;28;20775;-74
2021/11/14 03:55:01;;;;;;;118.68;59.03;;;;;;;3.53;100.00;99406.97;2079010;28;20231;-74
2021/11/14 03:56:02;;;;;;;111.60;57.40;;;;;;;3.54;100.00;99405.16;2079126;28;20230;-73
2021/11/14 03:57:06;;;;;;;114.35;58.03;;;;;;;3.52;100.00;99401.97;2079045;28;20223;-74
2021/11/14 03:58:09;;;;;;;110.97;57.08;;;;;;;3.52;100.00;99407.22;2078972;28;20223;-73
2021/11/14 03:59:11;;;;;;;114.97;58.38;;;;;;;3.51;100.00;99400.34;2087328;28;20222;-73
2021/11/14 04:00:14;;;;;;;111.45;56.25;;;;;;;3.51;100.00;99397.72;2087578;28;20951;-74
2021/11/14 04:01:20;;;;;;;109.72;57.53;;;;;;;3.49;100.00;99402.44;2087302;28;20241;-73
2021/11/14 04:02:20;;;;;;;109.47;55.85;;;;;;;3.49;100.00;99407.72;2088075;28;20222;-74
2021/11/14 04:03:22;;;;;;;105.87;56.40;;;;;;;3.47;100.00;99402.66;2088106;28;20226;-74
2021/11/14 04:04:24;;;;;;;112.82;56.35;;;;;;;3.47;100.00;99409.78;2087752;28;20219;-74
2021/11/14 04:05:28;;;;;;;114.53;57.63;;;;;;;3.43;100.00;99409.47;2087288;28;20304;-74
2021/11/14 04:06:30;;;;;;;126.25;59.78;;;;;;;3.43;100.00;99409.47;2087374;28;20231;-74
2021/11/14 04:07:32;;;;;;;117.05;58.33;;;;;;;3.45;100.00;99406.59;2088178;28;20222;-74
2021/11/14 04:08:33;;;;;;;116.93;58.55;;;;;;;3.45;100.00;99411.88;2088136;28;20583;-74
2021/11/14 04:09:36;;;;;;;111.75;56.60;;;;;;;3.42;100.00;99405.25;2087879;28;20251;-74
2021/11/14 04:10:38;;;;;;;107.97;59.05;;;;;;;3.43;100.00;99409.47;2087740;28;20231;-74
2021/11/14 04:11:41;;;;;;;113.55;57.60;;;;;;;3.42;100.00;99413.16;2088141;28;20261;-74
2021/11/14 04:12:43;;;;;;;111.93;55.72;;;;;;;3.40;100.00;99410.75;2087507;28;20229;-74
2021/11/14 04:13:45;;;;;;;113.70;57.35;;;;;;;3.43;100.00;99408.69;2078868;28;20277;-74
2021/11/14 04:14:46;;;;;;;110.00;55.65;;;;;;;3.43;100.00;99413.94;2079059;28;20227;-74
2021/11/14 04:15:48;;;;;;;108.37;56.10;;;;;;;3.39;100.00;99406.53;2078973;28;20670;-74
2021/11/14 04:16:49;;;;;;;110.53;57.22;;;;;;;3.42;100.00;99415.00;2079093;28;20584;-74
2021/11/14 04:17:55;;;;;;;106.35;57.58;;;;;;;3.42;100.00;99412.34;2087288;28;20247;-74
2021/11/14 04:18:58;;;;;;;111.90;56.15;;;;;;;3.38;100.00;99406.75;2087551;28;20230;-74
2021/11/14 04:19:59;;;;;;;109.30;55.60;;;;;;;3.37;100.00;99405.94;2087263;28;20250;-73
2021/11/14 04:21:01;;;;;;;117.20;58.23;;;;;;;3.35;100.00;99410.66;2087847;28;20268;-74
2021/11/14 04:22:02;;;;;;;109.30;57.40;;;;;;;3.36;100.00;99414.09;2087297;28;21313;-74
2021/11/14 04:23:05;;;;;;;108.53;54.70;;;;;;;3.35;100.00;99412.50;2087221;28;20239;-74
2021/11/14 04:24:06;;;;;;;112.47;56.70;;;;;;;3.33;100.00;99415.38;2087964;28;20223;-74
2021/11/14 04:25:10;;;;;;;117.53;56.83;;;;;;;3.33;100.00;99418.03;2086701;28;20310;-74
2021/11/14 04:26:12;;;;;;;110.75;56.72;;;;;;;3.32;100.00;99413.00;2086832;28;20222;-74
2021/11/14 04:27:14;;;;;;;110.20;57.10;;;;;;;3.32;100.00;99420.91;2087158;28;20222;-73
2021/11/14 04:28:15;;;;;;;109.75;56.45;;;;;;;3.30;100.00;99415.06;2079228;28;20223;-74
2021/11/14 04:29:17;;;;;;;106.35;55.80;;;;;;;3.29;100.00;99426.66;2087209;28;20230;-74
2021/11/14 04:30:18;;;;;;;115.90;56.25;;;;;;;3.23;100.00;99422.34;2086667;28;20603;-73
2021/11/14 04:31:21;;;;;;;114.07;57.03;;;;;;;3.23;100.00;99425.78;2078951;28;20243;-74
2021/11/14 04:32:22;;;;;;;114.43;57.03;;;;;;;3.23;100.00;99423.16;2094898;28;20218;-74
2021/11/14 04:33:25;;;;;;;121.43;58.70;;;;;;;3.21;100.00;99422.56;2087920;28;20669;-74
2021/11/14 04:34:25;;;;;;;122.25;61.05;;;;;;;3.21;100.00;99422.56;2087868;28;20227;-73
2021/11/14 04:35:27;;;;;;;111.77;56.43;;;;;;;3.22;100.00;99426.81;2087892;28;20295;-74
2021/11/14 04:36:29;;;;;;;118.05;57.85;;;;;;;3.21;100.00;99429.66;2087604;28;20224;-74
2021/11/14 04:37:30;;;;;;;119.47;58.45;;;;;;;3.20;100.00;99428.88;2087315;28;20700;-74
2021/11/14 04:38:31;;;;;;;112.77;58.27;;;;;;;3.21;100.00;99427.84;2078842;28;20676;-74
2021/11/14 04:39:34;;;;;;;105.43;57.60;;;;;;;3.19;100.00;99429.91;2087094;28;20223;-74
2021/11/14 04:40:39;;;;;;;112.68;57.42;;;;;;;3.17;100.00;99426.72;2095129;28;20230;-74
2021/11/14 04:41:42;;;;;;;107.53;55.40;;;;;;;3.18;100.00;99433.59;2087522;28;20233;-74
2021/11/14 04:42:43;;;;;;;112.53;56.53;;;;;;;3.21;100.00;99432.31;2087700;28;20223;-74
2021/11/14 04:44:06;;;;;;;118.13;58.20;;;;;;;3.20;100.00;99433.34;2087612;28;20226;-74